首页
METAR-TAF:

METAR-TAF

机场 :

波普拉德, 斯洛伐克

纬度: 49-04N, 经度: 020-15E, 海拔: 694米

当前天气观测

该预报发布于29分钟前的20:30 UTC
风速4节,风向南转西南,在东南西之间变化
温度 17°C
湿度 77%
气压 1010 hPa
能见度10公里或以上
多云层高于5600英尺

METAR: LZTT 062030Z 20004KT 130V270 9999 BKN056 17/13 Q1010

时间: 22:59 (20:59 UTC)

预报

该预报发布于3小时和59分钟前的17:00 UTC
预报有效从06日的 18点(UTC)到 07日的 18点(UTC)
风速4节,风向西
能见度10公里或以上
少量云层高于5500英尺
成为
从 07日的 06点(UTC)到 07日的 08点(UTC)
风速9节,风向南转南东
少量云层高于5000英尺, 塔状积云.
散云层高于7000英尺
短暂存在
从 07日的 11点(UTC)到 07日的 18点(UTC)
风速15节,风向南转西南,有时为25节阵风
能見度: 3000
少量云层高于2000英尺
散云层高于3000英尺, 积雨云.
多云层高于4500英尺
雷暴, 雨

TAF: LZTT 061700Z 0618/0718 26004KT 9999 FEW055 BECMG 0706/0708 16009KT FEW050TCU SCT070 TEMPO 0711/0718 20015G25KT 3000 TSRA FEW020 SCT030CB BKN045

超过4000个机场的气象观测和天气预报(METAR&TAF报告)。

可查询的气象台以黄色和红色小点在地图上表示。

将鼠标移到小点上方,可查看气象台名称。

然后点击查看天气观测和预报。

如需切换地图:点击带黑十字的绿色按钮放大地图;点击带横线的绿色按钮缩小地图;或者点击绿色箭头查看邻近地区的地图。


METAR-TAF: